sensor_id;sensor_type;location;lat;lon;timestamp;pressure;altitude;pressure_sealevel;temperature;humidity
50672;BME280;46021;55.882;37.654;2023-05-25T00:01:36;99534.63;;;13.45;78.47
50672;BME280;46021;55.882;37.654;2023-05-25T00:04:03;99533.78;;;13.45;77.85
50672;BME280;46021;55.882;37.654;2023-05-25T00:06:31;99531.22;;;13.43;78.08
50672;BME280;46021;55.882;37.654;2023-05-25T00:09:02;99528.00;;;13.38;78.60
50672;BME280;46021;55.882;37.654;2023-05-25T00:11:29;99524.66;;;13.35;78.15
50672;BME280;46021;55.882;37.654;2023-05-25T00:13:56;99538.53;;;13.37;78.80
50672;BME280;46021;55.882;37.654;2023-05-25T00:16:23;99529.19;;;13.31;79.28
50672;BME280;46021;55.882;37.654;2023-05-25T00:18:51;99537.75;;;13.35;78.95
50672;BME280;46021;55.882;37.654;2023-05-25T00:21:22;99530.94;;;13.31;79.42
50672;BME280;46021;55.882;37.654;2023-05-25T00:23:50;99528.31;;;13.31;79.70
50672;BME280;46021;55.882;37.654;2023-05-25T00:26:17;99526.50;;;13.33;79.36
50672;BME280;46021;55.882;37.654;2023-05-25T00:28:44;99509.34;;;13.25;79.39
50672;BME280;46021;55.882;37.654;2023-05-25T00:31:11;99521.38;;;13.30;78.93
50672;BME280;46021;55.882;37.654;2023-05-25T00:33:38;99523.22;;;13.27;79.24
50672;BME280;46021;55.882;37.654;2023-05-25T00:36:07;99526.72;;;13.26;79.13
50672;BME280;46021;55.882;37.654;2023-05-25T00:38:35;99527.72;;;13.24;79.00
50672;BME280;46021;55.882;37.654;2023-05-25T00:41:04;99527.00;;;13.20;79.38
50672;BME280;46021;55.882;37.654;2023-05-25T00:43:31;99534.22;;;13.15;79.36
50672;BME280;46021;55.882;37.654;2023-05-25T00:45:59;99524.81;;;13.11;79.62
50672;BME280;46021;55.882;37.654;2023-05-25T00:48:26;99518.94;;;13.06;79.31
50672;BME280;46021;55.882;37.654;2023-05-25T00:50:54;99514.56;;;13.06;79.15
50672;BME280;46021;55.882;37.654;2023-05-25T00:53:24;99512.00;;;13.05;79.50
50672;BME280;46021;55.882;37.654;2023-05-25T00:55:54;99495.59;;;13.01;79.62
50672;BME280;46021;55.882;37.654;2023-05-25T00:58:26;99503.50;;;13.00;79.62
50672;BME280;46021;55.882;37.654;2023-05-25T01:00:57;99492.06;;;13.02;80.06
50672;BME280;46021;55.882;37.654;2023-05-25T01:03:27;99491.91;;;13.05;79.62
50672;BME280;46021;55.882;37.654;2023-05-25T01:05:55;99487.69;;;13.03;80.02
50672;BME280;46021;55.882;37.654;2023-05-25T01:08:25;99491.06;;;13.05;79.90
50672;BME280;46021;55.882;37.654;2023-05-25T01:10:54;99487.69;;;13.03;80.12
50672;BME280;46021;55.882;37.654;2023-05-25T01:13:23;99486.91;;;13.01;80.03
50672;BME280;46021;55.882;37.654;2023-05-25T01:15:50;99480.13;;;12.97;80.21
50672;BME280;46021;55.882;37.654;2023-05-25T01:18:18;99473.22;;;12.94;80.70
50672;BME280;46021;55.882;37.654;2023-05-25T01:20:57;99471.56;;;12.93;80.20
50672;BME280;46021;55.882;37.654;2023-05-25T01:23:31;99470.69;;;12.93;80.56
50672;BME280;46021;55.882;37.654;2023-05-25T01:26:00;99460.38;;;12.90;80.60
50672;BME280;46021;55.882;37.654;2023-05-25T01:28:34;99467.88;;;12.97;80.16
50672;BME280;46021;55.882;37.654;2023-05-25T01:31:05;99471.19;;;13.01;80.68
50672;BME280;46021;55.882;37.654;2023-05-25T01:33:35;99463.47;;;12.98;80.49
50672;BME280;46021;55.882;37.654;2023-05-25T01:36:03;99464.06;;;13.04;79.99
50672;BME280;46021;55.882;37.654;2023-05-25T01:38:32;99461.50;;;13.03;80.31
50672;BME280;46021;55.882;37.654;2023-05-25T01:40:59;99457.00;;;13.06;80.09
50672;BME280;46021;55.882;37.654;2023-05-25T01:43:26;99463.66;;;13.14;80.57
50672;BME280;46021;55.882;37.654;2023-05-25T01:46:01;99464.19;;;13.20;80.35
50672;BME280;46021;55.882;37.654;2023-05-25T01:48:39;99462.22;;;13.25;81.35
50672;BME280;46021;55.882;37.654;2023-05-25T01:51:16;99468.91;;;13.33;80.78
50672;BME280;46021;55.882;37.654;2023-05-25T01:53:53;99467.69;;;13.40;81.12
50672;BME280;46021;55.882;37.654;2023-05-25T01:56:20;99483.13;;;13.46;80.71
50672;BME280;46021;55.882;37.654;2023-05-25T01:58:49;99480.34;;;13.49;80.50
50672;BME280;46021;55.882;37.654;2023-05-25T02:01:18;99489.06;;;13.50;80.38
50672;BME280;46021;55.882;37.654;2023-05-25T02:03:47;99495.94;;;13.52;80.61
50672;BME280;46021;55.882;37.654;2023-05-25T02:06:16;99487.00;;;13.56;80.57
50672;BME280;46021;55.882;37.654;2023-05-25T02:08:43;99489.38;;;13.61;80.70
50672;BME280;46021;55.882;37.654;2023-05-25T02:11:12;99490.72;;;13.70;80.68
50672;BME280;46021;55.882;37.654;2023-05-25T02:13:39;99494.75;;;13.77;80.88
50672;BME280;46021;55.882;37.654;2023-05-25T02:16:07;99486.97;;;13.75;81.13
50672;BME280;46021;55.882;37.654;2023-05-25T02:18:34;99487.06;;;13.91;81.03
50672;BME280;46021;55.882;37.654;2023-05-25T02:21:01;99492.16;;;13.94;80.28
50672;BME280;46021;55.882;37.654;2023-05-25T02:23:30;99496.25;;;14.00;80.63
50672;BME280;46021;55.882;37.654;2023-05-25T02:25:57;99496.66;;;14.10;80.40
50672;BME280;46021;55.882;37.654;2023-05-25T02:28:24;99494.66;;;14.15;80.04
50672;BME280;46021;55.882;37.654;2023-05-25T02:30:51;99494.34;;;14.21;80.19
50672;BME280;46021;55.882;37.654;2023-05-25T02:33:18;99509.47;;;14.33;80.30
50672;BME280;46021;55.882;37.654;2023-05-25T02:35:46;99512.25;;;14.48;80.20
50672;BME280;46021;55.882;37.654;2023-05-25T02:38:13;99518.44;;;14.64;80.22
50672;BME280;46021;55.882;37.654;2023-05-25T02:40:41;99504.31;;;14.84;80.08
50672;BME280;46021;55.882;37.654;2023-05-25T02:43:09;99512.81;;;15.05;79.71
50672;BME280;46021;55.882;37.654;2023-05-25T02:45:37;99511.66;;;15.27;79.47
50672;BME280;46021;55.882;37.654;2023-05-25T02:48:05;99524.41;;;15.50;78.95
50672;BME280;46021;55.882;37.654;2023-05-25T02:50:33;99520.09;;;15.81;79.44
50672;BME280;46021;55.882;37.654;2023-05-25T02:53:04;99521.66;;;16.15;78.72
50672;BME280;46021;55.882;37.654;2023-05-25T02:55:31;99524.59;;;16.55;78.87
50672;BME280;46021;55.882;37.654;2023-05-25T02:58:00;99526.06;;;16.90;78.15
50672;BME280;46021;55.882;37.654;2023-05-25T03:00:45;99523.09;;;17.25;77.51
50672;BME280;46021;55.882;37.654;2023-05-25T03:03:13;99521.38;;;17.52;76.53
50672;BME280;46021;55.882;37.654;2023-05-25T03:05:40;99529.69;;;17.73;76.14
50672;BME280;46021;55.882;37.654;2023-05-25T03:08:07;99525.78;;;17.93;75.01
50672;BME280;46021;55.882;37.654;2023-05-25T03:10:35;99531.94;;;18.07;74.09
50672;BME280;46021;55.882;37.654;2023-05-25T03:13:04;99532.41;;;18.14;73.19
50672;BME280;46021;55.882;37.654;2023-05-25T03:15:32;99534.00;;;18.16;73.04
50672;BME280;46021;55.882;37.654;2023-05-25T03:17:59;99539.41;;;18.27;72.79
50672;BME280;46021;55.882;37.654;2023-05-25T03:20:29;99535.00;;;18.41;72.80
50672;BME280;46021;55.882;37.654;2023-05-25T03:22:57;99534.16;;;18.40;71.60
50672;BME280;46021;55.882;37.654;2023-05-25T03:25:24;99538.38;;;18.43;72.31
50672;BME280;46021;55.882;37.654;2023-05-25T03:27:52;99546.25;;;18.57;72.22
50672;BME280;46021;55.882;37.654;2023-05-25T03:30:21;99546.03;;;18.73;71.59
50672;BME280;46021;55.882;37.654;2023-05-25T03:32:48;99546.47;;;18.80;71.07
50672;BME280;46021;55.882;37.654;2023-05-25T03:35:15;99534.03;;;18.82;70.68
50672;BME280;46021;55.882;37.654;2023-05-25T03:37:55;99537.22;;;19.00;70.77
50672;BME280;46021;55.882;37.654;2023-05-25T03:40:22;99543.03;;;19.18;70.56
50672;BME280;46021;55.882;37.654;2023-05-25T03:42:49;99531.16;;;19.36;70.11
50672;BME280;46021;55.882;37.654;2023-05-25T03:45:16;99530.59;;;19.57;69.22
50672;BME280;46021;55.882;37.654;2023-05-25T03:47:45;99521.75;;;19.69;68.77
50672;BME280;46021;55.882;37.654;2023-05-25T03:50:12;99525.03;;;19.85;68.76
50672;BME280;46021;55.882;37.654;2023-05-25T03:52:41;99515.06;;;19.89;68.26
50672;BME280;46021;55.882;37.654;2023-05-25T03:55:08;99516.16;;;19.98;67.34
50672;BME280;46021;55.882;37.654;2023-05-25T03:57:35;99519.38;;;20.14;67.27
50672;BME280;46021;55.882;37.654;2023-05-25T04:00:04;99515.38;;;20.33;67.82
50672;BME280;46021;55.882;37.654;2023-05-25T04:02:38;99510.41;;;20.63;66.76
50672;BME280;46021;55.882;37.654;2023-05-25T04:05:08;99511.91;;;20.90;66.52
50672;BME280;46021;55.882;37.654;2023-05-25T04:07:35;99506.59;;;21.24;65.72
50672;BME280;46021;55.882;37.654;2023-05-25T04:10:03;99506.38;;;21.61;65.50
50672;BME280;46021;55.882;37.654;2023-05-25T04:12:31;99511.44;;;21.96;64.56
50672;BME280;46021;55.882;37.654;2023-05-25T04:14:59;99510.28;;;22.22;63.58
50672;BME280;46021;55.882;37.654;2023-05-25T04:17:30;99513.09;;;22.41;62.47
50672;BME280;46021;55.882;37.654;2023-05-25T04:19:57;99510.38;;;22.52;62.12
50672;BME280;46021;55.882;37.654;2023-05-25T04:22:26;99491.00;;;22.62;61.46
50672;BME280;46021;55.882;37.654;2023-05-25T04:24:53;99500.00;;;22.70;60.84
50672;BME280;46021;55.882;37.654;2023-05-25T04:27:21;99504.59;;;22.68;60.67
50672;BME280;46021;55.882;37.654;2023-05-25T04:29:48;99491.38;;;22.78;60.91
50672;BME280;46021;55.882;37.654;2023-05-25T04:32:40;99485.13;;;22.89;60.48
50672;BME280;46021;55.882;37.654;2023-05-25T04:35:33;99498.19;;;23.02;60.03
50672;BME280;46021;55.882;37.654;2023-05-25T04:38:03;99493.53;;;23.15;59.79
50672;BME280;46021;55.882;37.654;2023-05-25T04:40:32;99489.09;;;23.25;58.90
50672;BME280;46021;55.882;37.654;2023-05-25T04:43:01;99491.09;;;23.43;58.49
50672;BME280;46021;55.882;37.654;2023-05-25T04:45:29;99491.38;;;23.49;58.36
50672;BME280;46021;55.882;37.654;2023-05-25T04:47:58;99490.59;;;23.68;58.11
50672;BME280;46021;55.882;37.654;2023-05-25T04:50:26;99491.50;;;23.88;57.02
50672;BME280;46021;55.882;37.654;2023-05-25T04:52:54;99493.19;;;23.99;56.32
50672;BME280;46021;55.882;37.654;2023-05-25T04:55:22;99491.78;;;23.95;54.13
50672;BME280;46021;55.882;37.654;2023-05-25T04:57:49;99507.13;;;23.72;55.64
50672;BME280;46021;55.882;37.654;2023-05-25T05:00:18;99501.50;;;23.55;55.89
50672;BME280;46021;55.882;37.654;2023-05-25T05:02:47;99507.47;;;23.79;56.24
50672;BME280;46021;55.882;37.654;2023-05-25T05:05:14;99511.25;;;24.25;56.06
50672;BME280;46021;55.882;37.654;2023-05-25T05:07:42;99501.66;;;24.81;54.98
50672;BME280;46021;55.882;37.654;2023-05-25T05:10:09;99502.50;;;25.28;54.11
50672;BME280;46021;55.882;37.654;2023-05-25T05:12:41;99498.16;;;25.91;53.39
50672;BME280;46021;55.882;37.654;2023-05-25T05:15:09;99512.28;;;26.55;52.13
50672;BME280;46021;55.882;37.654;2023-05-25T05:17:38;99513.38;;;26.89;50.41
50672;BME280;46021;55.882;37.654;2023-05-25T05:20:06;99504.25;;;26.73;47.99
50672;BME280;46021;55.882;37.654;2023-05-25T05:22:34;99501.09;;;26.16;48.56
50672;BME280;46021;55.882;37.654;2023-05-25T05:25:02;99499.72;;;25.48;48.77
50672;BME280;46021;55.882;37.654;2023-05-25T05:27:30;99498.19;;;24.61;50.18
50672;BME280;46021;55.882;37.654;2023-05-25T05:30:04;99503.84;;;23.89;51.15
50672;BME280;46021;55.882;37.654;2023-05-25T05:32:33;99501.44;;;23.36;52.45
50672;BME280;46021;55.882;37.654;2023-05-25T05:35:01;99509.09;;;22.98;53.25
50672;BME280;46021;55.882;37.654;2023-05-25T05:37:36;99496.13;;;22.74;53.94
50672;BME280;46021;55.882;37.654;2023-05-25T05:40:05;99498.00;;;22.42;54.25
50672;BME280;46021;55.882;37.654;2023-05-25T05:42:34;99496.78;;;22.13;54.86
50672;BME280;46021;55.882;37.654;2023-05-25T05:45:03;99500.41;;;21.80;55.22
50672;BME280;46021;55.882;37.654;2023-05-25T05:47:32;99500.47;;;21.46;56.05
50672;BME280;46021;55.882;37.654;2023-05-25T05:50:00;99495.50;;;21.19;56.83
50672;BME280;46021;55.882;37.654;2023-05-25T05:52:31;99502.75;;;20.94;57.86
50672;BME280;46021;55.882;37.654;2023-05-25T05:54:59;99502.03;;;20.92;58.04
50672;BME280;46021;55.882;37.654;2023-05-25T05:57:26;99499.63;;;20.89;58.35
50672;BME280;46021;55.882;37.654;2023-05-25T05:59:54;99500.34;;;20.91;58.43
50672;BME280;46021;55.882;37.654;2023-05-25T06:02:22;99505.16;;;20.97;58.79
50672;BME280;46021;55.882;37.654;2023-05-25T06:04:49;99506.16;;;20.96;58.14
50672;BME280;46021;55.882;37.654;2023-05-25T06:07:17;99495.78;;;20.93;58.58
50672;BME280;46021;55.882;37.654;2023-05-25T06:09:44;99493.13;;;20.82;58.35
50672;BME280;46021;55.882;37.654;2023-05-25T06:12:11;99494.78;;;20.83;59.11
50672;BME280;46021;55.882;37.654;2023-05-25T06:14:38;99495.25;;;20.77;59.06
50672;BME280;46021;55.882;37.654;2023-05-25T06:17:06;99495.97;;;20.68;59.61
50672;BME280;46021;55.882;37.654;2023-05-25T06:19:34;99498.34;;;20.59;59.50
50672;BME280;46021;55.882;37.654;2023-05-25T06:22:02;99499.75;;;20.52;60.27
50672;BME280;46021;55.882;37.654;2023-05-25T06:24:29;99499.72;;;20.41;60.32
50672;BME280;46021;55.882;37.654;2023-05-25T06:26:56;99496.84;;;20.33;60.55
50672;BME280;46021;55.882;37.654;2023-05-25T06:29:24;99492.44;;;20.20;60.28
50672;BME280;46021;55.882;37.654;2023-05-25T06:31:51;99498.00;;;20.17;61.44
50672;BME280;46021;55.882;37.654;2023-05-25T06:34:19;99502.66;;;20.14;60.96
50672;BME280;46021;55.882;37.654;2023-05-25T06:36:47;99496.03;;;20.08;61.18
50672;BME280;46021;55.882;37.654;2023-05-25T06:39:14;99502.63;;;20.02;60.85
50672;BME280;46021;55.882;37.654;2023-05-25T06:41:42;99492.81;;;19.92;61.11
50672;BME280;46021;55.882;37.654;2023-05-25T06:44:09;99498.56;;;19.85;62.16
50672;BME280;46021;55.882;37.654;2023-05-25T06:46:44;99488.44;;;19.79;61.95
50672;BME280;46021;55.882;37.654;2023-05-25T06:49:12;99495.19;;;19.83;63.00
50672;BME280;46021;55.882;37.654;2023-05-25T06:51:39;99496.88;;;19.84;62.88
50672;BME280;46021;55.882;37.654;2023-05-25T06:54:07;99499.66;;;19.83;62.56
50672;BME280;46021;55.882;37.654;2023-05-25T06:56:36;99497.09;;;19.81;62.74
50672;BME280;46021;55.882;37.654;2023-05-25T06:59:03;99498.28;;;19.77;62.86
50672;BME280;46021;55.882;37.654;2023-05-25T07:01:31;99503.25;;;19.69;63.42
50672;BME280;46021;55.882;37.654;2023-05-25T07:03:58;99500.09;;;19.64;63.49
50672;BME280;46021;55.882;37.654;2023-05-25T07:06:25;99501.88;;;19.63;63.78
50672;BME280;46021;55.882;37.654;2023-05-25T07:08:52;99497.56;;;19.62;63.61
50672;BME280;46021;55.882;37.654;2023-05-25T07:11:21;99498.78;;;19.70;63.82
50672;BME280;46021;55.882;37.654;2023-05-25T07:13:48;99501.66;;;19.79;64.00
50672;BME280;46021;55.882;37.654;2023-05-25T07:16:16;99502.41;;;19.81;63.72
50672;BME280;46021;55.882;37.654;2023-05-25T07:18:43;99519.22;;;19.80;64.03
50672;BME280;46021;55.882;37.654;2023-05-25T07:21:10;99518.69;;;19.75;63.41
50672;BME280;46021;55.882;37.654;2023-05-25T07:23:37;99515.00;;;19.65;63.79
50672;BME280;46021;55.882;37.654;2023-05-25T07:26:06;99504.34;;;19.54;64.63
50672;BME280;46021;55.882;37.654;2023-05-25T07:28:34;99520.00;;;19.57;64.58
50672;BME280;46021;55.882;37.654;2023-05-25T07:31:01;99511.94;;;19.58;65.40
50672;BME280;46021;55.882;37.654;2023-05-25T07:33:28;99508.25;;;19.61;65.02
50672;BME280;46021;55.882;37.654;2023-05-25T07:36:08;99505.88;;;19.69;64.81
50672;BME280;46021;55.882;37.654;2023-05-25T07:38:35;99513.41;;;19.75;65.44
50672;BME280;46021;55.882;37.654;2023-05-25T07:41:03;99503.13;;;19.83;65.26
50672;BME280;46021;55.882;37.654;2023-05-25T07:43:30;99501.00;;;19.89;64.80
50672;BME280;46021;55.882;37.654;2023-05-25T07:45:59;99503.41;;;19.92;64.95
50672;BME280;46021;55.882;37.654;2023-05-25T07:48:27;99493.53;;;19.94;65.03
50672;BME280;46021;55.882;37.654;2023-05-25T07:50:54;99493.34;;;19.97;65.01
50672;BME280;46021;55.882;37.654;2023-05-25T07:53:21;99490.22;;;20.03;64.72
50672;BME280;46021;55.882;37.654;2023-05-25T07:55:48;99491.94;;;20.04;64.68
50672;BME280;46021;55.882;37.654;2023-05-25T07:58:16;99494.69;;;20.02;64.64
50672;BME280;46021;55.882;37.654;2023-05-25T08:00:43;99486.00;;;20.00;64.37
50672;BME280;46021;55.882;37.654;2023-05-25T08:03:11;99494.72;;;19.90;64.77
50672;BME280;46021;55.882;37.654;2023-05-25T08:05:39;99482.34;;;19.66;65.17
50672;BME280;46021;55.882;37.654;2023-05-25T08:08:06;99497.50;;;19.51;66.10
50672;BME280;46021;55.882;37.654;2023-05-25T08:10:34;99489.19;;;19.32;66.33
50672;BME280;46021;55.882;37.654;2023-05-25T08:13:01;99499.25;;;19.26;66.76
50672;BME280;46021;55.882;37.654;2023-05-25T08:15:28;99497.44;;;19.27;67.03
50672;BME280;46021;55.882;37.654;2023-05-25T08:17:56;99487.63;;;19.29;66.50
50672;BME280;46021;55.882;37.654;2023-05-25T08:20:24;99490.13;;;19.43;67.10
50672;BME280;46021;55.882;37.654;2023-05-25T08:22:52;99489.44;;;19.53;66.41
50672;BME280;46021;55.882;37.654;2023-05-25T08:25:19;99489.63;;;19.62;67.05
50672;BME280;46021;55.882;37.654;2023-05-25T08:27:47;99489.28;;;19.67;66.68
50672;BME280;46021;55.882;37.654;2023-05-25T08:30:14;99481.66;;;19.75;66.28
50672;BME280;46021;55.882;37.654;2023-05-25T08:32:41;99491.16;;;19.91;65.82
50672;BME280;46021;55.882;37.654;2023-05-25T08:35:08;99499.97;;;20.02;66.31
50672;BME280;46021;55.882;37.654;2023-05-25T08:37:40;99496.69;;;19.99;65.75
50672;BME280;46021;55.882;37.654;2023-05-25T08:40:13;99501.78;;;20.02;65.49
50672;BME280;46021;55.882;37.654;2023-05-25T08:42:42;99497.53;;;19.99;65.19
50672;BME280;46021;55.882;37.654;2023-05-25T08:45:09;99493.84;;;20.02;66.12
50672;BME280;46021;55.882;37.654;2023-05-25T08:47:39;99496.19;;;20.18;65.83
50672;BME280;46021;55.882;37.654;2023-05-25T08:50:09;99489.38;;;20.27;65.09
50672;BME280;46021;55.882;37.654;2023-05-25T08:52:39;99490.34;;;20.37;64.91
50672;BME280;46021;55.882;37.654;2023-05-25T08:55:11;99494.44;;;20.41;65.01
50672;BME280;46021;55.882;37.654;2023-05-25T08:57:44;99494.69;;;20.38;64.24
50672;BME280;46021;55.882;37.654;2023-05-25T09:00:14;99488.28;;;20.29;64.66
50672;BME280;46021;55.882;37.654;2023-05-25T09:02:45;99493.31;;;20.21;64.47
50672;BME280;46021;55.882;37.654;2023-05-25T09:05:16;99488.59;;;19.89;64.96
50672;BME280;46021;55.882;37.654;2023-05-25T09:07:45;99490.78;;;19.58;65.72
50672;BME280;46021;55.882;37.654;2023-05-25T09:10:13;99492.63;;;19.45;65.53
50672;BME280;46021;55.882;37.654;2023-05-25T09:12:41;99480.34;;;19.20;66.30
50672;BME280;46021;55.882;37.654;2023-05-25T09:15:09;99477.16;;;19.15;66.13
50672;BME280;46021;55.882;37.654;2023-05-25T09:17:37;99482.25;;;19.18;66.54
50672;BME280;46021;55.882;37.654;2023-05-25T09:20:07;99485.09;;;19.15;66.69
50672;BME280;46021;55.882;37.654;2023-05-25T09:22:36;99483.53;;;19.12;67.25
50672;BME280;46021;55.882;37.654;2023-05-25T09:25:06;99487.63;;;19.16;66.75
50672;BME280;46021;55.882;37.654;2023-05-25T09:27:34;99483.19;;;19.17;67.48
50672;BME280;46021;55.882;37.654;2023-05-25T09:30:04;99488.25;;;19.20;67.40
50672;BME280;46021;55.882;37.654;2023-05-25T09:32:34;99479.69;;;19.16;66.89
50672;BME280;46021;55.882;37.654;2023-05-25T09:35:09;99491.09;;;19.17;67.98
50672;BME280;46021;55.882;37.654;2023-05-25T09:37:36;99487.53;;;19.18;67.38
50672;BME280;46021;55.882;37.654;2023-05-25T09:40:06;99492.81;;;19.18;68.37
50672;BME280;46021;55.882;37.654;2023-05-25T09:42:34;99484.03;;;19.17;68.57
50672;BME280;46021;55.882;37.654;2023-05-25T09:45:02;99491.09;;;19.17;69.01
50672;BME280;46021;55.882;37.654;2023-05-25T09:47:32;99486.06;;;19.14;69.08
50672;BME280;46021;55.882;37.654;2023-05-25T09:50:02;99482.69;;;19.12;68.86
50672;BME280;46021;55.882;37.654;2023-05-25T09:52:32;99485.31;;;19.12;68.79
50672;BME280;46021;55.882;37.654;2023-05-25T09:55:00;99489.25;;;19.06;69.18
50672;BME280;46021;55.882;37.654;2023-05-25T09:57:32;99495.81;;;19.00;69.47
50672;BME280;46021;55.882;37.654;2023-05-25T10:00:01;99486.06;;;18.88;69.68
50672;BME280;46021;55.882;37.654;2023-05-25T10:02:38;99492.72;;;18.81;70.09
50672;BME280;46021;55.882;37.654;2023-05-25T10:05:05;99492.94;;;18.78;70.06
50672;BME280;46021;55.882;37.654;2023-05-25T10:07:33;99491.13;;;18.65;70.15
50672;BME280;46021;55.882;37.654;2023-05-25T10:10:05;99486.03;;;18.49;70.47
50672;BME280;46021;55.882;37.654;2023-05-25T10:12:35;99477.16;;;18.38;70.76
50672;BME280;46021;55.882;37.654;2023-05-25T10:15:04;99485.38;;;18.33;71.03
50672;BME280;46021;55.882;37.654;2023-05-25T10:17:34;99493.81;;;18.25;71.61
50672;BME280;46021;55.882;37.654;2023-05-25T10:20:03;99494.03;;;18.22;72.00
50672;BME280;46021;55.882;37.654;2023-05-25T10:22:35;99489.16;;;18.16;72.19
50672;BME280;46021;55.882;37.654;2023-05-25T10:25:09;99490.63;;;18.07;73.10
50672;BME280;46021;55.882;37.654;2023-05-25T10:27:45;99491.66;;;18.05;73.37
50672;BME280;46021;55.882;37.654;2023-05-25T10:30:13;99494.50;;;18.02;73.56
50672;BME280;46021;55.882;37.654;2023-05-25T10:32:41;99492.38;;;17.94;74.69
50672;BME280;46021;55.882;37.654;2023-05-25T10:35:10;99486.81;;;17.84;74.85
50672;BME280;46021;55.882;37.654;2023-05-25T10:37:38;99477.41;;;17.80;75.01
50672;BME280;46021;55.882;37.654;2023-05-25T10:40:06;99486.47;;;17.76;75.80
50672;BME280;46021;55.882;37.654;2023-05-25T10:42:34;99478.94;;;17.70;76.91
50672;BME280;46021;55.882;37.654;2023-05-25T10:45:05;99482.53;;;17.69;77.15
50672;BME280;46021;55.882;37.654;2023-05-25T10:47:34;99482.88;;;17.77;77.18
50672;BME280;46021;55.882;37.654;2023-05-25T10:50:02;99478.03;;;17.84;77.20
50672;BME280;46021;55.882;37.654;2023-05-25T10:52:31;99484.34;;;17.96;77.51
50672;BME280;46021;55.882;37.654;2023-05-25T10:54:59;99480.16;;;18.06;77.95
50672;BME280;46021;55.882;37.654;2023-05-25T10:57:31;99480.06;;;18.20;78.08
50672;BME280;46021;55.882;37.654;2023-05-25T11:00:04;99472.50;;;18.28;77.84
50672;BME280;46021;55.882;37.654;2023-05-25T11:02:48;99477.38;;;18.35;77.48
50672;BME280;46021;55.882;37.654;2023-05-25T11:05:39;99482.22;;;18.41;77.06
50672;BME280;46021;55.882;37.654;2023-05-25T11:08:08;99477.38;;;18.35;76.96
50672;BME280;46021;55.882;37.654;2023-05-25T11:10:45;99468.16;;;18.27;77.19
50672;BME280;46021;55.882;37.654;2023-05-25T11:13:22;99472.69;;;18.25;77.22
50672;BME280;46021;55.882;37.654;2023-05-25T11:16:09;99473.25;;;18.30;77.19
50672;BME280;46021;55.882;37.654;2023-05-25T11:18:38;99478.97;;;18.50;77.76
50672;BME280;46021;55.882;37.654;2023-05-25T11:21:14;99474.88;;;18.72;77.51
50672;BME280;46021;55.882;37.654;2023-05-25T11:23:53;99466.00;;;18.98;77.35
50672;BME280;46021;55.882;37.654;2023-05-25T11:26:22;99469.75;;;19.20;76.76
50672;BME280;46021;55.882;37.654;2023-05-25T11:28:50;99465.41;;;19.32;76.33
50672;BME280;46021;55.882;37.654;2023-05-25T11:31:27;99458.97;;;19.36;75.45
50672;BME280;46021;55.882;37.654;2023-05-25T11:33:56;99455.91;;;19.29;74.46
50672;BME280;46021;55.882;37.654;2023-05-25T11:36:23;99455.91;;;19.29;75.07
50672;BME280;46021;55.882;37.654;2023-05-25T11:38:52;99448.19;;;19.26;74.49
50672;BME280;46021;55.882;37.654;2023-05-25T11:41:19;99449.78;;;19.28;74.33
50672;BME280;46021;55.882;37.654;2023-05-25T11:43:48;99449.44;;;19.33;74.30
50672;BME280;46021;55.882;37.654;2023-05-25T11:46:16;99443.03;;;19.48;74.33
50672;BME280;46021;55.882;37.654;2023-05-25T11:48:49;99433.31;;;19.49;73.08
50672;BME280;46021;55.882;37.654;2023-05-25T11:51:19;99430.78;;;19.47;73.05
50672;BME280;46021;55.882;37.654;2023-05-25T11:53:46;99423.06;;;19.44;73.22
50672;BME280;46021;55.882;37.654;2023-05-25T11:56:14;99427.84;;;19.39;73.02
50672;BME280;46021;55.882;37.654;2023-05-25T11:58:42;99433.00;;;19.41;72.92
50672;BME280;46021;55.882;37.654;2023-05-25T12:01:15;99431.00;;;19.44;72.23
50672;BME280;46021;55.882;37.654;2023-05-25T12:03:45;99433.50;;;19.59;72.35
50672;BME280;46021;55.882;37.654;2023-05-25T12:06:25;99423.19;;;19.67;71.00
50672;BME280;46021;55.882;37.654;2023-05-25T12:08:53;99429.75;;;19.74;71.84
50672;BME280;46021;55.882;37.654;2023-05-25T12:11:26;99429.00;;;19.72;71.46
50672;BME280;46021;55.882;37.654;2023-05-25T12:13:54;99427.28;;;19.71;71.29
50672;BME280;46021;55.882;37.654;2023-05-25T12:16:22;99435.53;;;19.79;71.00
50672;BME280;46021;55.882;37.654;2023-05-25T12:18:51;99429.84;;;19.97;71.34
50672;BME280;46021;55.882;37.654;2023-05-25T12:21:19;99427.94;;;20.10;69.52
50672;BME280;46021;55.882;37.654;2023-05-25T12:23:47;99426.75;;;20.14;69.56
50672;BME280;46021;55.882;37.654;2023-05-25T12:26:15;99427.13;;;20.10;68.46
50672;BME280;46021;55.882;37.654;2023-05-25T12:28:57;99420.63;;;20.14;68.19
50672;BME280;46021;55.882;37.654;2023-05-25T12:31:25;99419.56;;;20.28;69.46
50672;BME280;46021;55.882;37.654;2023-05-25T12:34:05;99416.47;;;20.45;67.13
50672;BME280;46021;55.882;37.654;2023-05-25T12:36:47;99409.06;;;20.84;66.79
50672;BME280;46021;55.882;37.654;2023-05-25T12:39:16;99409.94;;;21.28;66.65
50672;BME280;46021;55.882;37.654;2023-05-25T12:41:48;99415.09;;;21.41;64.90
50672;BME280;46021;55.882;37.654;2023-05-25T12:44:20;99413.53;;;21.61;64.43
50672;BME280;46021;55.882;37.654;2023-05-25T12:46:49;99410.63;;;21.53;63.96
50672;BME280;46021;55.882;37.654;2023-05-25T12:49:29;99404.91;;;21.25;63.14
50672;BME280;46021;55.882;37.654;2023-05-25T12:51:57;99407.19;;;21.18;64.28
50672;BME280;46021;55.882;37.654;2023-05-25T12:54:39;99398.63;;;21.26;62.55
50672;BME280;46021;55.882;37.654;2023-05-25T12:57:10;99406.19;;;21.42;63.69
50672;BME280;46021;55.882;37.654;2023-05-25T12:59:37;99404.88;;;21.48;63.16
50672;BME280;46021;55.882;37.654;2023-05-25T13:02:05;99400.31;;;21.27;62.63